createdAt,value
2023-01-04T00:00:37.273Z,20.03
2023-01-04T00:03:40.671Z,20.45
2023-01-04T00:06:43.743Z,20.00
2023-01-04T00:09:46.853Z,21.45
2023-01-04T00:12:50.076Z,21.67
2023-01-04T00:15:54.016Z,21.60
2023-01-04T00:18:57.659Z,21.77
2023-01-04T00:22:00.732Z,20.37
2023-01-04T00:25:03.780Z,19.35
2023-01-04T00:28:06.779Z,17.90
2023-01-04T00:31:12.435Z,19.87
2023-01-04T00:34:18.091Z,18.27
2023-01-04T00:37:20.967Z,18.83
2023-01-04T00:40:24.076Z,18.83
2023-01-04T00:43:27.332Z,19.57
2023-01-04T00:46:32.012Z,19.33
2023-01-04T00:49:35.035Z,18.77
2023-01-04T00:52:38.017Z,18.17
2023-01-04T00:55:41.014Z,19.75
2023-01-04T00:58:44.005Z,18.43
2023-01-04T01:01:47.114Z,19.30
2023-01-04T01:04:50.393Z,19.50
2023-01-04T01:07:53.387Z,17.83
2023-01-04T01:10:56.764Z,16.55
2023-01-04T01:13:59.692Z,17.80
2023-01-04T01:17:03.348Z,16.55
2023-01-04T01:20:07.106Z,17.05
2023-01-04T01:23:13.057Z,20.42
2023-01-04T01:26:19.056Z,19.65
2023-01-04T01:29:22.176Z,17.80
2023-01-04T01:32:24.921Z,16.05
2023-01-04T01:35:28.004Z,16.12
2023-01-04T01:38:30.856Z,15.18
2023-01-04T01:41:35.249Z,16.10
2023-01-04T01:44:46.862Z,16.40
2023-01-04T01:47:51.494Z,17.48
2023-01-04T01:50:59.341Z,18.62
2023-01-04T01:54:13.537Z,18.00
2023-01-04T01:57:23.848Z,17.75
2023-01-04T02:00:28.306Z,17.90
2023-01-04T02:03:37.130Z,18.17
2023-01-04T02:06:43.942Z,16.55
2023-01-04T02:09:48.121Z,15.55
2023-01-04T02:12:52.822Z,16.62
2023-01-04T02:16:04.609Z,16.60
2023-01-04T02:19:16.713Z,15.85
2023-01-04T02:22:57.232Z,16.60
2023-01-04T02:26:42.515Z,15.15
2023-01-04T02:30:12.419Z,15.13
2023-01-04T02:33:34.605Z,14.47
2023-01-04T02:36:58.675Z,15.02
2023-01-04T02:40:11.066Z,14.07
2023-01-04T02:43:46.455Z,14.30
2023-01-04T02:47:01.790Z,13.98
2023-01-04T02:50:33.424Z,15.00
2023-01-04T02:53:40.313Z,16.00
2023-01-04T02:57:13.545Z,16.58
2023-01-04T03:01:00.158Z,16.10
2023-01-04T03:04:30.775Z,17.12
2023-01-04T03:08:01.458Z,14.57
2023-01-04T03:11:33.928Z,17.75
2023-01-04T03:15:10.264Z,18.62
2023-01-04T03:18:24.454Z,17.17
2023-01-04T03:21:28.757Z,16.83
2023-01-04T03:24:52.896Z,16.83
2023-01-04T03:28:16.427Z,16.77
2023-01-04T03:31:40.987Z,15.80
2023-01-04T03:35:03.031Z,16.20
2023-01-04T03:39:19.988Z,17.90
2023-01-04T03:42:49.402Z,13.87
2023-01-04T03:46:36.349Z,13.77
2023-01-04T03:49:47.833Z,14.50
2023-01-04T03:52:52.213Z,15.15
2023-01-04T03:55:58.625Z,13.43
2023-01-04T03:59:02.189Z,14.13
2023-01-04T04:02:08.553Z,17.03
2023-01-04T04:05:38.554Z,16.60
2023-01-04T04:08:41.278Z,16.65
2023-01-04T04:11:44.351Z,17.20
2023-01-04T04:14:47.451Z,18.53
2023-01-04T04:17:50.491Z,16.10
2023-01-04T04:20:59.633Z,15.57
2023-01-04T04:24:02.904Z,20.80
2023-01-04T04:27:05.593Z,17.98
2023-01-04T04:30:09.229Z,19.03
2023-01-04T04:33:11.965Z,17.75
2023-01-04T04:36:15.159Z,18.67
2023-01-04T04:39:17.934Z,15.77
2023-01-04T04:42:21.043Z,19.05
2023-01-04T04:45:23.854Z,16.70
2023-01-04T04:48:27.008Z,16.97
2023-01-04T04:51:29.877Z,18.27
2023-01-04T04:54:32.956Z,15.60
2023-01-04T04:57:35.783Z,16.90
2023-01-04T05:00:41.728Z,16.83
2023-01-04T05:03:44.640Z,16.07
2023-01-04T05:06:49.501Z,14.98
2023-01-04T05:09:52.277Z,16.95
2023-01-04T05:13:01.190Z,18.48
2023-01-04T05:16:05.349Z,19.67
2023-01-04T05:19:08.440Z,19.17
2023-01-04T05:22:11.205Z,15.48
2023-01-04T05:25:14.374Z,17.52
2023-01-04T05:28:17.274Z,16.77
2023-01-04T05:31:20.474Z,16.20
2023-01-04T05:34:23.377Z,15.53
2023-01-04T05:37:26.345Z,17.20
2023-01-04T05:40:29.462Z,19.00
2023-01-04T05:43:32.498Z,15.07
2023-01-04T05:46:35.584Z,14.00
2023-01-04T05:49:38.812Z,14.80
2023-01-04T05:52:41.503Z,16.80
2023-01-04T05:55:45.441Z,16.08
2023-01-04T05:58:48.261Z,15.50
2023-01-04T06:01:51.483Z,17.30
2023-01-04T06:04:58.693Z,16.70
2023-01-04T06:08:02.300Z,15.70
2023-01-04T06:11:05.607Z,16.50
2023-01-04T06:14:08.348Z,15.75
2023-01-04T06:17:11.559Z,16.73
2023-01-04T06:20:14.411Z,21.30
2023-01-04T06:23:18.005Z,20.67
2023-01-04T06:26:21.621Z,19.27
2023-01-04T06:29:24.936Z,18.58
2023-01-04T06:32:27.843Z,16.47
2023-01-04T06:35:30.894Z,17.47
2023-01-04T06:38:34.015Z,16.50
2023-01-04T06:41:37.395Z,18.08
2023-01-04T06:44:40.270Z,18.70
2023-01-04T06:47:44.182Z,14.93
2023-01-04T06:50:47.133Z,14.13
2023-01-04T06:53:50.502Z,16.48
2023-01-04T06:56:53.260Z,15.75
2023-01-04T06:59:56.420Z,14.75
2023-01-04T07:03:14.783Z,15.40
2023-01-04T07:06:18.881Z,15.40
2023-01-04T07:09:21.751Z,16.02
2023-01-04T07:12:25.014Z,14.45
2023-01-04T07:15:38.980Z,13.05
2023-01-04T07:18:43.362Z,15.50
2023-01-04T07:21:46.183Z,16.80
2023-01-04T07:24:49.396Z,17.45
2023-01-04T07:27:53.739Z,29.45
2023-01-04T07:30:56.854Z,20.25
2023-01-04T07:33:59.533Z,24.63
2023-01-04T07:37:02.724Z,26.83
2023-01-04T07:40:06.551Z,36.55
2023-01-04T07:43:09.605Z,19.80
2023-01-04T07:46:13.053Z,18.80
2023-01-04T07:49:18.796Z,16.57
2023-01-04T07:52:21.676Z,65.47
2023-01-04T07:55:24.816Z,19.20
2023-01-04T07:58:32.054Z,26.92
2023-01-04T08:01:35.805Z,15.27
2023-01-04T08:04:39.813Z,16.00
2023-01-04T08:07:42.564Z,17.33
2023-01-04T08:10:45.816Z,15.65
2023-01-04T08:13:49.054Z,16.67
2023-01-04T08:16:53.016Z,22.37
2023-01-04T08:19:55.897Z,28.13
2023-01-04T08:22:59.210Z,20.98
2023-01-04T08:26:04.050Z,13.80
2023-01-04T08:29:07.279Z,19.73
2023-01-04T08:32:10.052Z,24.05
2023-01-04T08:35:13.151Z,21.33
2023-01-04T08:38:56.045Z,18.40
2023-01-04T08:42:03.646Z,17.15
2023-01-04T08:45:09.313Z,18.42
2023-01-04T08:48:12.507Z,21.85
2023-01-04T08:51:16.794Z,16.63
2023-01-04T08:54:20.129Z,17.83
2023-01-04T08:57:23.035Z,21.08
2023-01-04T09:00:26.188Z,20.00
2023-01-04T09:03:29.590Z,31.40
2023-01-04T09:06:32.846Z,23.23
2023-01-04T09:09:35.626Z,40.60
2023-01-04T09:12:39.115Z,27.95
2023-01-04T09:15:42.029Z,27.13
2023-01-04T09:18:46.138Z,20.98
2023-01-04T09:21:49.081Z,20.40
2023-01-04T09:24:52.233Z,22.07
2023-01-04T09:27:54.994Z,25.62
2023-01-04T09:30:57.971Z,26.15
2023-01-04T09:34:17.730Z,20.55
2023-01-04T09:37:21.372Z,27.37
2023-01-04T09:40:31.836Z,32.50
2023-01-04T09:43:49.480Z,21.83
2023-01-04T09:47:15.032Z,21.48
2023-01-04T09:50:36.930Z,23.05
2023-01-04T09:53:45.749Z,21.27
2023-01-04T09:56:54.050Z,19.90
2023-01-04T10:00:03.075Z,18.55
2023-01-04T10:03:25.738Z,18.55
2023-01-04T10:06:34.250Z,17.15
2023-01-04T10:09:37.032Z,18.63
2023-01-04T10:13:14.074Z,19.70
2023-01-04T10:17:12.204Z,17.40
2023-01-04T10:24:05.937Z,16.50
2023-01-04T10:27:27.005Z,17.20
2023-01-04T10:30:40.467Z,17.27
2023-01-04T10:34:22.382Z,17.98
2023-01-04T10:37:32.680Z,14.40
2023-01-04T10:40:40.028Z,17.05
2023-01-04T10:44:14.308Z,15.83
2023-01-04T10:47:23.814Z,17.33
2023-01-04T10:50:41.535Z,18.75
2023-01-04T10:53:49.360Z,18.98
2023-01-04T10:57:07.748Z,34.58
2023-01-04T11:00:20.089Z,15.50
2023-01-04T11:03:32.496Z,14.07
2023-01-04T11:06:49.469Z,15.57
2023-01-04T11:10:24.337Z,13.98
2023-01-04T11:13:28.800Z,13.18
2023-01-04T11:16:32.293Z,13.03
2023-01-04T11:19:35.848Z,13.07
2023-01-04T11:22:54.478Z,13.00
2023-01-04T11:26:01.034Z,14.35
2023-01-04T11:29:13.350Z,14.40
2023-01-04T11:32:51.346Z,15.30
2023-01-04T11:35:59.025Z,14.57
2023-01-04T11:39:03.173Z,15.20
2023-01-04T11:42:07.074Z,16.12
2023-01-04T11:45:25.329Z,18.50
2023-01-04T11:48:38.879Z,13.47
2023-01-04T11:51:42.163Z,14.70
2023-01-04T11:54:45.417Z,11.98
2023-01-04T11:57:48.493Z,14.00
2023-01-04T12:00:56.727Z,15.68
2023-01-04T12:04:00.564Z,15.97
2023-01-04T12:07:11.637Z,14.77
2023-01-04T12:10:27.506Z,13.38
2023-01-04T12:13:33.062Z,14.00
2023-01-04T12:16:48.489Z,13.95
2023-01-04T12:19:54.860Z,15.03
2023-01-04T12:22:58.051Z,13.50
2023-01-04T12:26:01.968Z,15.05
2023-01-04T12:29:23.654Z,16.05
2023-01-04T12:32:26.397Z,12.18
2023-01-04T12:36:02.902Z,15.33
2023-01-04T12:39:14.851Z,12.57
2023-01-04T12:42:22.141Z,10.75
2023-01-04T12:45:24.996Z,12.30
2023-01-04T12:48:46.755Z,11.27
2023-01-04T12:52:12.837Z,9.67
2023-01-04T12:55:27.634Z,12.67
2023-01-04T13:02:17.225Z,9.38
2023-01-04T13:08:45.921Z,7.60
2023-01-04T13:12:01.351Z,8.60
2023-01-04T13:15:15.900Z,9.27
2023-01-04T13:18:38.542Z,8.93
2023-01-04T13:21:45.201Z,10.55
2023-01-04T13:24:51.472Z,11.00
2023-01-04T13:28:02.203Z,9.90
2023-01-04T13:31:05.205Z,8.50
2023-01-04T13:34:19.052Z,7.40
2023-01-04T13:37:22.280Z,7.80
2023-01-04T13:40:29.141Z,8.40
2023-01-04T13:43:39.295Z,7.43
2023-01-04T13:50:44.343Z,9.13
2023-01-04T13:54:20.876Z,8.88
2023-01-04T13:57:24.710Z,9.60
2023-01-04T14:00:42.234Z,11.57
2023-01-04T14:03:53.810Z,9.95
2023-01-04T14:07:00.595Z,10.68
2023-01-04T14:10:03.790Z,9.13
2023-01-04T14:13:06.735Z,8.17
2023-01-04T14:16:15.345Z,6.50
2023-01-04T14:19:45.863Z,6.47
2023-01-04T14:22:48.944Z,6.90
2023-01-04T14:25:56.809Z,7.12
2023-01-04T14:29:23.201Z,7.87
2023-01-04T14:32:26.935Z,4.93
2023-01-04T14:35:30.949Z,5.15
2023-01-04T14:38:44.355Z,8.10
2023-01-04T14:41:51.773Z,10.27
2023-01-04T14:44:55.034Z,9.27
2023-01-04T14:47:58.078Z,10.27
2023-01-04T14:51:01.406Z,10.73
2023-01-04T14:54:07.801Z,10.77
2023-01-04T14:57:11.561Z,12.45
2023-01-04T15:00:21.473Z,12.37
2023-01-04T15:03:24.378Z,11.57
2023-01-04T15:06:27.599Z,15.05
2023-01-04T15:09:30.845Z,12.63
2023-01-04T15:12:33.836Z,20.73
2023-01-04T15:15:36.641Z,14.77
2023-01-04T15:18:40.747Z,15.37
2023-01-04T15:21:43.636Z,20.40
2023-01-04T15:24:46.645Z,21.48
2023-01-04T15:27:50.348Z,22.92
2023-01-04T15:30:53.871Z,22.37
2023-01-04T15:33:56.698Z,19.77
2023-01-04T15:36:59.718Z,20.20
2023-01-04T15:40:03.943Z,20.98
2023-01-04T15:43:07.120Z,18.85
2023-01-04T15:46:09.984Z,23.93
2023-01-04T15:49:17.181Z,18.67
2023-01-04T15:52:20.900Z,17.17
2023-01-04T15:55:24.712Z,14.85
2023-01-04T15:58:27.358Z,14.10
2023-01-04T16:01:30.762Z,11.83
2023-01-04T16:04:35.958Z,11.63
2023-01-04T16:07:38.806Z,10.38
2023-01-04T16:10:41.861Z,10.45
2023-01-04T16:13:59.667Z,11.77
2023-01-04T16:17:02.772Z,11.57
2023-01-04T16:20:06.310Z,10.33
2023-01-04T16:23:09.404Z,11.32
2023-01-04T16:28:27.337Z,9.02
2023-01-04T16:31:35.006Z,8.52
2023-01-04T16:34:38.082Z,8.23
2023-01-04T16:37:43.143Z,8.40
2023-01-04T16:40:45.905Z,4.90
2023-01-04T16:43:55.539Z,8.88
2023-01-04T16:46:58.408Z,9.18
2023-01-04T16:50:01.505Z,9.67
2023-01-04T16:53:04.261Z,8.93
2023-01-04T16:56:09.799Z,10.80
2023-01-04T16:59:21.182Z,14.55
2023-01-04T17:02:24.374Z,12.55
2023-01-04T17:05:27.243Z,9.80
2023-01-04T17:08:30.332Z,12.60
2023-01-04T17:15:32.144Z,6.25
2023-01-04T17:18:23.211Z,10.55
2023-01-04T17:21:36.103Z,9.83
2023-01-04T17:24:39.399Z,8.27
2023-01-04T17:27:44.117Z,10.63
2023-01-04T17:30:47.195Z,9.15
2023-01-04T17:33:51.316Z,9.82
2023-01-04T17:36:54.156Z,11.03
2023-01-04T17:39:57.365Z,10.13
2023-01-04T17:43:00.649Z,11.60
2023-01-04T17:46:32.477Z,11.50
2023-01-04T17:50:03.245Z,8.00
2023-01-04T17:53:06.945Z,15.50
2023-01-04T17:59:21.804Z,21.33
2023-01-04T18:02:25.146Z,14.38
2023-01-04T18:05:31.905Z,12.88
2023-01-04T18:08:35.291Z,10.70
2023-01-04T18:11:42.243Z,7.30
2023-01-04T18:14:45.962Z,6.40
2023-01-04T18:17:50.015Z,7.22
2023-01-04T18:20:58.866Z,8.18
2023-01-04T18:27:27.969Z,8.63
2023-01-04T18:30:35.658Z,8.38
2023-01-04T18:33:41.733Z,7.18
2023-01-04T18:37:11.514Z,8.52
2023-01-04T18:40:30.270Z,8.03
2023-01-04T18:43:36.315Z,5.63
2023-01-04T18:46:42.169Z,8.15
2023-01-04T18:49:48.200Z,6.28
2023-01-04T18:52:52.619Z,5.60
2023-01-04T18:55:57.704Z,5.93
2023-01-04T18:59:01.641Z,7.23
2023-01-04T19:02:06.130Z,7.85
2023-01-04T19:05:11.693Z,5.03
2023-01-04T19:08:15.885Z,5.90
2023-01-04T19:11:20.814Z,6.83
2023-01-04T19:14:25.681Z,7.97
2023-01-04T19:17:29.677Z,9.02
2023-01-04T19:20:38.993Z,6.72
2023-01-04T19:23:42.944Z,6.45
2023-01-04T19:26:46.603Z,8.53
2023-01-04T19:29:50.667Z,7.03
2023-01-04T19:32:54.507Z,7.07
2023-01-04T19:36:01.186Z,9.25
2023-01-04T19:39:09.668Z,7.62
2023-01-04T19:42:13.163Z,8.70
2023-01-04T19:45:17.093Z,7.07
2023-01-04T19:48:20.375Z,8.20
2023-01-04T19:51:24.432Z,10.10
2023-01-04T19:54:30.140Z,7.30
2023-01-04T19:57:34.089Z,9.87
2023-01-04T20:00:37.693Z,8.93
2023-01-04T20:03:43.248Z,9.93
2023-01-04T20:06:47.818Z,6.85
2023-01-04T20:09:52.230Z,5.90
2023-01-04T20:12:55.854Z,8.00
2023-01-04T20:16:00.852Z,8.17
2023-01-04T20:19:04.542Z,8.60
2023-01-04T20:22:09.817Z,10.25
2023-01-04T20:25:13.741Z,9.43
2023-01-04T20:28:20.393Z,8.93
2023-01-04T20:31:24.398Z,7.20
2023-01-04T20:34:29.134Z,8.05
2023-01-04T20:37:32.170Z,7.55
2023-01-04T20:40:38.917Z,8.85
2023-01-04T20:43:43.179Z,7.73
2023-01-04T20:46:48.372Z,8.07
2023-01-04T20:49:51.926Z,7.32
2023-01-04T20:52:59.342Z,6.68
2023-01-04T20:56:14.537Z,7.10
2023-01-04T20:59:25.231Z,6.73
2023-01-04T21:02:32.037Z,4.90
2023-01-04T21:05:42.311Z,5.82
2023-01-04T21:08:46.614Z,7.55
2023-01-04T21:11:50.835Z,4.68
2023-01-04T21:14:54.274Z,6.80
2023-01-04T21:17:57.761Z,7.00
2023-01-04T21:21:06.421Z,5.47
2023-01-04T21:24:09.665Z,6.93
2023-01-04T21:27:12.366Z,5.07
2023-01-04T21:30:15.530Z,5.67
2023-01-04T21:33:18.321Z,3.93
2023-01-04T21:36:24.075Z,6.10
2023-01-04T21:39:27.162Z,6.28
2023-01-04T21:42:31.272Z,5.82
2023-01-04T21:45:40.036Z,6.07
2023-01-04T21:48:45.228Z,7.77
2023-01-04T21:51:48.479Z,4.53
2023-01-04T21:54:51.726Z,5.00
2023-01-04T21:57:54.474Z,6.93
2023-01-04T22:00:57.575Z,8.17
2023-01-04T22:04:00.858Z,8.50
2023-01-04T22:07:03.554Z,8.90
2023-01-04T22:10:07.064Z,8.68
2023-01-04T22:13:12.734Z,7.82
2023-01-04T22:16:16.925Z,7.37
2023-01-04T22:19:19.837Z,8.07
2023-01-04T22:22:22.865Z,8.05
2023-01-04T22:25:25.944Z,7.95
2023-01-04T22:28:36.323Z,7.75
2023-01-04T22:31:39.452Z,7.40
2023-01-04T22:34:42.520Z,7.60
2023-01-04T22:37:45.673Z,8.52
2023-01-04T22:40:48.867Z,8.05
2023-01-04T22:43:56.710Z,8.65
2023-01-04T22:46:59.924Z,8.17
2023-01-04T22:50:05.001Z,8.90
2023-01-04T22:53:08.319Z,8.77
2023-01-04T22:56:19.636Z,8.68
2023-01-04T22:59:23.936Z,10.70
2023-01-04T23:02:26.738Z,10.23
2023-01-04T23:05:30.123Z,10.20
2023-01-04T23:08:33.670Z,9.70
2023-01-04T23:11:37.477Z,8.55
2023-01-04T23:14:40.153Z,9.38
2023-01-04T23:17:43.389Z,9.53
2023-01-04T23:20:53.297Z,8.90
2023-01-04T23:23:56.326Z,8.13
2023-01-04T23:26:59.185Z,8.88
2023-01-04T23:30:02.221Z,7.68
2023-01-04T23:33:04.936Z,8.97
2023-01-04T23:36:08.854Z,8.47
2023-01-04T23:39:16.131Z,7.20
2023-01-04T23:42:19.214Z,9.25
2023-01-04T23:45:21.919Z,8.68
2023-01-04T23:48:25.096Z,8.20
2023-01-04T23:51:27.793Z,9.27
2023-01-04T23:54:31.385Z,9.45
2023-01-04T23:57:34.229Z,7.43
